sensor_id;sensor_type;location;lat;lon;timestamp;P1;durP1;ratioP1;P2;durP2;ratioP2
50519;SDS011;36468;44.098;3.078;2022-07-18T00:02:19;5.07;;;3.08;;
50519;SDS011;36468;44.098;3.078;2022-07-18T00:04:45;6.35;;;3.58;;
50519;SDS011;36468;44.098;3.078;2022-07-18T00:07:12;6.53;;;3.30;;
50519;SDS011;36468;44.098;3.078;2022-07-18T00:09:41;5.20;;;3.45;;
50519;SDS011;36468;44.098;3.078;2022-07-18T00:12:08;6.43;;;3.63;;
50519;SDS011;36468;44.098;3.078;2022-07-18T00:14:35;5.22;;;3.47;;
50519;SDS011;36468;44.098;3.078;2022-07-18T00:17:01;4.65;;;3.35;;
50519;SDS011;36468;44.098;3.078;2022-07-18T00:19:27;8.63;;;3.22;;
50519;SDS011;36468;44.098;3.078;2022-07-18T00:21:53;5.10;;;3.22;;
50519;SDS011;36468;44.098;3.078;2022-07-18T00:24:19;10.30;;;3.28;;
50519;SDS011;36468;44.098;3.078;2022-07-18T00:26:45;5.43;;;3.70;;
50519;SDS011;36468;44.098;3.078;2022-07-18T00:29:12;5.88;;;3.53;;
50519;SDS011;36468;44.098;3.078;2022-07-18T00:31:38;6.50;;;3.53;;
50519;SDS011;36468;44.098;3.078;2022-07-18T00:34:04;7.95;;;3.60;;
50519;SDS011;36468;44.098;3.078;2022-07-18T00:36:30;4.95;;;3.20;;
50519;SDS011;36468;44.098;3.078;2022-07-18T00:38:56;5.72;;;3.50;;
50519;SDS011;36468;44.098;3.078;2022-07-18T00:41:23;4.82;;;3.63;;
50519;SDS011;36468;44.098;3.078;2022-07-18T00:43:49;9.15;;;3.90;;
50519;SDS011;36468;44.098;3.078;2022-07-18T00:46:15;4.80;;;3.70;;
50519;SDS011;36468;44.098;3.078;2022-07-18T00:48:42;5.20;;;3.75;;
50519;SDS011;36468;44.098;3.078;2022-07-18T00:51:08;6.32;;;3.80;;
50519;SDS011;36468;44.098;3.078;2022-07-18T00:53:34;5.65;;;3.70;;
50519;SDS011;36468;44.098;3.078;2022-07-18T00:56:02;5.78;;;3.83;;
50519;SDS011;36468;44.098;3.078;2022-07-18T00:58:28;6.95;;;3.72;;
50519;SDS011;36468;44.098;3.078;2022-07-18T01:00:55;6.68;;;3.95;;
50519;SDS011;36468;44.098;3.078;2022-07-18T01:03:40;5.10;;;3.53;;
50519;SDS011;36468;44.098;3.078;2022-07-18T01:06:06;7.22;;;3.50;;
50519;SDS011;36468;44.098;3.078;2022-07-18T01:08:32;5.70;;;3.47;;
50519;SDS011;36468;44.098;3.078;2022-07-18T01:11:00;5.07;;;3.65;;
50519;SDS011;36468;44.098;3.078;2022-07-18T01:13:26;9.38;;;3.42;;
50519;SDS011;36468;44.098;3.078;2022-07-18T01:15:52;5.25;;;3.67;;
50519;SDS011;36468;44.098;3.078;2022-07-18T01:18:18;5.85;;;3.65;;
50519;SDS011;36468;44.098;3.078;2022-07-18T01:20:44;5.00;;;3.85;;
50519;SDS011;36468;44.098;3.078;2022-07-18T01:23:10;5.25;;;3.90;;
50519;SDS011;36468;44.098;3.078;2022-07-18T01:25:36;7.68;;;3.83;;
50519;SDS011;36468;44.098;3.078;2022-07-18T01:28:02;6.38;;;3.50;;
50519;SDS011;36468;44.098;3.078;2022-07-18T01:30:28;6.05;;;3.75;;
50519;SDS011;36468;44.098;3.078;2022-07-18T01:32:55;5.28;;;3.50;;
50519;SDS011;36468;44.098;3.078;2022-07-18T01:35:22;4.95;;;3.80;;
50519;SDS011;36468;44.098;3.078;2022-07-18T01:37:50;4.80;;;3.28;;
50519;SDS011;36468;44.098;3.078;2022-07-18T01:40:16;4.40;;;3.90;;
50519;SDS011;36468;44.098;3.078;2022-07-18T01:42:42;7.57;;;3.88;;
50519;SDS011;36468;44.098;3.078;2022-07-18T01:45:08;5.38;;;3.60;;
50519;SDS011;36468;44.098;3.078;2022-07-18T01:47:34;5.32;;;3.67;;
50519;SDS011;36468;44.098;3.078;2022-07-18T01:50:00;4.20;;;3.80;;
50519;SDS011;36468;44.098;3.078;2022-07-18T01:52:26;7.28;;;3.90;;
50519;SDS011;36468;44.098;3.078;2022-07-18T01:54:52;6.70;;;4.15;;
50519;SDS011;36468;44.098;3.078;2022-07-18T01:57:18;5.53;;;4.00;;
50519;SDS011;36468;44.098;3.078;2022-07-18T01:59:44;5.78;;;4.20;;
50519;SDS011;36468;44.098;3.078;2022-07-18T02:02:11;6.32;;;4.07;;
50519;SDS011;36468;44.098;3.078;2022-07-18T02:04:37;5.65;;;3.45;;
50519;SDS011;36468;44.098;3.078;2022-07-18T02:07:21;7.68;;;3.92;;
50519;SDS011;36468;44.098;3.078;2022-07-18T02:09:47;7.07;;;3.97;;
50519;SDS011;36468;44.098;3.078;2022-07-18T02:12:13;4.93;;;3.95;;
50519;SDS011;36468;44.098;3.078;2022-07-18T02:14:39;6.88;;;4.13;;
50519;SDS011;36468;44.098;3.078;2022-07-18T02:17:05;6.40;;;4.28;;
50519;SDS011;36468;44.098;3.078;2022-07-18T02:19:31;5.82;;;3.83;;
50519;SDS011;36468;44.098;3.078;2022-07-18T02:21:58;5.65;;;4.10;;
50519;SDS011;36468;44.098;3.078;2022-07-18T02:24:24;8.68;;;4.50;;
50519;SDS011;36468;44.098;3.078;2022-07-18T02:26:50;6.18;;;4.40;;
50519;SDS011;36468;44.098;3.078;2022-07-18T02:29:16;6.28;;;4.00;;
50519;SDS011;36468;44.098;3.078;2022-07-18T02:31:42;5.43;;;3.95;;
50519;SDS011;36468;44.098;3.078;2022-07-18T02:34:08;5.38;;;4.07;;
50519;SDS011;36468;44.098;3.078;2022-07-18T02:36:37;4.90;;;4.40;;
50519;SDS011;36468;44.098;3.078;2022-07-18T02:39:04;5.18;;;4.00;;
50519;SDS011;36468;44.098;3.078;2022-07-18T02:41:30;5.32;;;4.30;;
50519;SDS011;36468;44.098;3.078;2022-07-18T02:43:56;8.13;;;4.60;;
50519;SDS011;36468;44.098;3.078;2022-07-18T02:46:22;12.68;;;4.50;;
50519;SDS011;36468;44.098;3.078;2022-07-18T02:48:49;9.02;;;4.18;;
50519;SDS011;36468;44.098;3.078;2022-07-18T02:51:15;5.70;;;4.20;;
50519;SDS011;36468;44.098;3.078;2022-07-18T02:53:41;5.35;;;4.38;;
50519;SDS011;36468;44.098;3.078;2022-07-18T02:56:07;4.82;;;4.28;;
50519;SDS011;36468;44.098;3.078;2022-07-18T02:58:33;5.15;;;4.63;;
50519;SDS011;36468;44.098;3.078;2022-07-18T03:00:59;5.22;;;4.30;;
50519;SDS011;36468;44.098;3.078;2022-07-18T03:03:25;8.15;;;4.50;;
50519;SDS011;36468;44.098;3.078;2022-07-18T03:05:51;6.97;;;4.38;;
50519;SDS011;36468;44.098;3.078;2022-07-18T03:08:17;7.47;;;4.45;;
50519;SDS011;36468;44.098;3.078;2022-07-18T03:10:43;8.18;;;5.03;;
50519;SDS011;36468;44.098;3.078;2022-07-18T03:13:09;7.78;;;4.55;;
50519;SDS011;36468;44.098;3.078;2022-07-18T03:15:37;5.47;;;4.43;;
50519;SDS011;36468;44.098;3.078;2022-07-18T03:18:03;8.10;;;4.63;;
50519;SDS011;36468;44.098;3.078;2022-07-18T03:20:29;6.25;;;4.38;;
50519;SDS011;36468;44.098;3.078;2022-07-18T03:22:56;8.38;;;4.75;;
50519;SDS011;36468;44.098;3.078;2022-07-18T03:25:22;4.53;;;4.13;;
50519;SDS011;36468;44.098;3.078;2022-07-18T03:27:48;5.80;;;4.40;;
50519;SDS011;36468;44.098;3.078;2022-07-18T03:30:14;8.32;;;4.45;;
50519;SDS011;36468;44.098;3.078;2022-07-18T03:32:40;5.80;;;4.57;;
50519;SDS011;36468;44.098;3.078;2022-07-18T03:35:06;6.68;;;4.93;;
50519;SDS011;36468;44.098;3.078;2022-07-18T03:37:32;8.52;;;4.47;;
50519;SDS011;36468;44.098;3.078;2022-07-18T03:39:59;5.53;;;4.72;;
50519;SDS011;36468;44.098;3.078;2022-07-18T03:42:25;6.93;;;4.80;;
50519;SDS011;36468;44.098;3.078;2022-07-18T03:44:51;9.88;;;4.88;;
50519;SDS011;36468;44.098;3.078;2022-07-18T03:47:17;8.45;;;5.07;;
50519;SDS011;36468;44.098;3.078;2022-07-18T03:49:43;6.82;;;4.53;;
50519;SDS011;36468;44.098;3.078;2022-07-18T03:52:09;6.03;;;4.40;;
50519;SDS011;36468;44.098;3.078;2022-07-18T03:54:35;5.38;;;4.50;;
50519;SDS011;36468;44.098;3.078;2022-07-18T03:57:01;5.00;;;4.50;;
50519;SDS011;36468;44.098;3.078;2022-07-18T03:59:27;8.75;;;4.93;;
50519;SDS011;36468;44.098;3.078;2022-07-18T04:01:53;5.05;;;4.45;;
50519;SDS011;36468;44.098;3.078;2022-07-18T04:04:19;6.93;;;4.60;;
50519;SDS011;36468;44.098;3.078;2022-07-18T04:06:46;6.53;;;4.65;;
50519;SDS011;36468;44.098;3.078;2022-07-18T04:09:12;6.57;;;4.63;;
50519;SDS011;36468;44.098;3.078;2022-07-18T04:11:38;9.85;;;4.63;;
50519;SDS011;36468;44.098;3.078;2022-07-18T04:14:04;9.50;;;5.00;;
50519;SDS011;36468;44.098;3.078;2022-07-18T04:16:30;6.95;;;4.85;;
50519;SDS011;36468;44.098;3.078;2022-07-18T04:18:56;7.00;;;4.70;;
50519;SDS011;36468;44.098;3.078;2022-07-18T04:21:22;9.45;;;4.68;;
50519;SDS011;36468;44.098;3.078;2022-07-18T04:23:48;8.35;;;5.05;;
50519;SDS011;36468;44.098;3.078;2022-07-18T04:26:14;7.93;;;5.30;;
50519;SDS011;36468;44.098;3.078;2022-07-18T04:28:41;6.38;;;4.57;;
50519;SDS011;36468;44.098;3.078;2022-07-18T04:31:07;7.25;;;5.32;;
50519;SDS011;36468;44.098;3.078;2022-07-18T04:33:33;6.75;;;4.70;;
50519;SDS011;36468;44.098;3.078;2022-07-18T04:35:59;9.65;;;4.90;;
50519;SDS011;36468;44.098;3.078;2022-07-18T04:38:25;8.00;;;4.60;;
50519;SDS011;36468;44.098;3.078;2022-07-18T04:40:51;5.35;;;4.38;;
50519;SDS011;36468;44.098;3.078;2022-07-18T04:43:17;8.43;;;4.97;;
50519;SDS011;36468;44.098;3.078;2022-07-18T04:45:43;6.32;;;4.55;;
50519;SDS011;36468;44.098;3.078;2022-07-18T04:48:09;8.88;;;5.03;;
50519;SDS011;36468;44.098;3.078;2022-07-18T04:50:35;6.15;;;4.68;;
50519;SDS011;36468;44.098;3.078;2022-07-18T04:53:01;6.20;;;4.50;;
50519;SDS011;36468;44.098;3.078;2022-07-18T04:55:27;8.75;;;4.25;;
50519;SDS011;36468;44.098;3.078;2022-07-18T04:57:53;5.78;;;4.72;;
50519;SDS011;36468;44.098;3.078;2022-07-18T05:00:20;6.68;;;4.60;;
50519;SDS011;36468;44.098;3.078;2022-07-18T05:02:48;10.50;;;4.70;;
50519;SDS011;36468;44.098;3.078;2022-07-18T05:05:14;6.75;;;4.97;;
50519;SDS011;36468;44.098;3.078;2022-07-18T05:07:41;6.90;;;4.30;;
50519;SDS011;36468;44.098;3.078;2022-07-18T05:10:08;6.80;;;4.22;;
50519;SDS011;36468;44.098;3.078;2022-07-18T05:12:35;6.43;;;4.93;;
50519;SDS011;36468;44.098;3.078;2022-07-18T05:15:01;7.22;;;4.60;;
50519;SDS011;36468;44.098;3.078;2022-07-18T05:17:28;7.15;;;4.80;;
50519;SDS011;36468;44.098;3.078;2022-07-18T05:19:54;8.43;;;5.38;;
50519;SDS011;36468;44.098;3.078;2022-07-18T05:22:20;7.80;;;4.72;;
50519;SDS011;36468;44.098;3.078;2022-07-18T05:24:46;6.95;;;4.85;;
50519;SDS011;36468;44.098;3.078;2022-07-18T05:27:12;6.80;;;4.50;;
50519;SDS011;36468;44.098;3.078;2022-07-18T05:29:38;6.63;;;4.90;;
50519;SDS011;36468;44.098;3.078;2022-07-18T05:32:04;6.20;;;4.20;;
50519;SDS011;36468;44.098;3.078;2022-07-18T05:34:32;6.28;;;4.38;;
50519;SDS011;36468;44.098;3.078;2022-07-18T05:36:58;7.03;;;4.40;;
50519;SDS011;36468;44.098;3.078;2022-07-18T05:39:24;6.70;;;4.63;;
50519;SDS011;36468;44.098;3.078;2022-07-18T05:41:50;5.05;;;4.50;;
50519;SDS011;36468;44.098;3.078;2022-07-18T05:44:16;5.50;;;4.10;;
50519;SDS011;36468;44.098;3.078;2022-07-18T05:46:45;7.68;;;4.10;;
50519;SDS011;36468;44.098;3.078;2022-07-18T05:49:11;9.18;;;4.40;;
50519;SDS011;36468;44.098;3.078;2022-07-18T05:51:37;6.35;;;4.68;;
50519;SDS011;36468;44.098;3.078;2022-07-18T05:54:03;6.85;;;4.18;;
50519;SDS011;36468;44.098;3.078;2022-07-18T05:56:29;6.88;;;4.13;;
50519;SDS011;36468;44.098;3.078;2022-07-18T05:58:55;5.13;;;3.50;;
50519;SDS011;36468;44.098;3.078;2022-07-18T06:01:21;7.93;;;4.05;;
50519;SDS011;36468;44.098;3.078;2022-07-18T06:03:48;6.35;;;3.60;;
50519;SDS011;36468;44.098;3.078;2022-07-18T06:06:14;5.15;;;4.00;;
50519;SDS011;36468;44.098;3.078;2022-07-18T06:08:40;5.78;;;4.05;;
50519;SDS011;36468;44.098;3.078;2022-07-18T06:11:07;7.35;;;3.88;;
50519;SDS011;36468;44.098;3.078;2022-07-18T06:13:37;7.70;;;4.18;;
50519;SDS011;36468;44.098;3.078;2022-07-18T06:16:04;7.97;;;3.70;;
50519;SDS011;36468;44.098;3.078;2022-07-18T06:18:30;6.20;;;3.92;;
50519;SDS011;36468;44.098;3.078;2022-07-18T06:20:56;7.32;;;3.95;;
50519;SDS011;36468;44.098;3.078;2022-07-18T06:23:22;7.30;;;3.72;;
50519;SDS011;36468;44.098;3.078;2022-07-18T06:25:48;7.68;;;3.75;;
50519;SDS011;36468;44.098;3.078;2022-07-18T06:28:14;6.93;;;3.90;;
50519;SDS011;36468;44.098;3.078;2022-07-18T06:30:40;5.53;;;3.67;;
50519;SDS011;36468;44.098;3.078;2022-07-18T06:33:06;4.38;;;3.35;;
50519;SDS011;36468;44.098;3.078;2022-07-18T06:35:33;7.60;;;3.42;;
50519;SDS011;36468;44.098;3.078;2022-07-18T06:37:59;6.32;;;3.55;;
50519;SDS011;36468;44.098;3.078;2022-07-18T06:40:25;4.88;;;3.00;;
50519;SDS011;36468;44.098;3.078;2022-07-18T06:42:52;5.10;;;3.42;;
50519;SDS011;36468;44.098;3.078;2022-07-18T06:45:18;5.45;;;3.20;;
50519;SDS011;36468;44.098;3.078;2022-07-18T06:47:44;6.15;;;2.90;;
50519;SDS011;36468;44.098;3.078;2022-07-18T06:50:11;5.47;;;3.03;;
50519;SDS011;36468;44.098;3.078;2022-07-18T06:52:38;5.68;;;3.40;;
50519;SDS011;36468;44.098;3.078;2022-07-18T06:55:05;6.53;;;2.90;;
50519;SDS011;36468;44.098;3.078;2022-07-18T06:57:31;6.38;;;3.00;;
50519;SDS011;36468;44.098;3.078;2022-07-18T06:59:57;10.00;;;3.13;;
50519;SDS011;36468;44.098;3.078;2022-07-18T07:02:23;10.93;;;2.72;;
50519;SDS011;36468;44.098;3.078;2022-07-18T07:04:49;3.35;;;2.90;;
50519;SDS011;36468;44.098;3.078;2022-07-18T07:07:16;3.17;;;2.63;;
50519;SDS011;36468;44.098;3.078;2022-07-18T07:09:42;2.90;;;2.63;;
50519;SDS011;36468;44.098;3.078;2022-07-18T07:12:08;7.00;;;3.05;;
50519;SDS011;36468;44.098;3.078;2022-07-18T07:14:35;9.90;;;3.40;;
50519;SDS011;36468;44.098;3.078;2022-07-18T07:17:01;6.35;;;3.00;;
50519;SDS011;36468;44.098;3.078;2022-07-18T07:19:27;5.25;;;2.17;;
50519;SDS011;36468;44.098;3.078;2022-07-18T07:21:53;3.70;;;2.45;;
50519;SDS011;36468;44.098;3.078;2022-07-18T07:24:19;3.72;;;2.40;;
50519;SDS011;36468;44.098;3.078;2022-07-18T07:26:45;6.32;;;2.30;;
50519;SDS011;36468;44.098;3.078;2022-07-18T07:29:11;4.03;;;2.47;;
50519;SDS011;36468;44.098;3.078;2022-07-18T07:31:37;6.70;;;2.33;;
50519;SDS011;36468;44.098;3.078;2022-07-18T07:34:04;4.72;;;2.38;;
50519;SDS011;36468;44.098;3.078;2022-07-18T07:36:30;5.25;;;2.25;;
50519;SDS011;36468;44.098;3.078;2022-07-18T07:38:56;3.22;;;2.05;;
50519;SDS011;36468;44.098;3.078;2022-07-18T07:41:22;6.75;;;2.30;;
50519;SDS011;36468;44.098;3.078;2022-07-18T07:43:48;8.63;;;2.30;;
50519;SDS011;36468;44.098;3.078;2022-07-18T07:46:14;4.72;;;1.90;;
50519;SDS011;36468;44.098;3.078;2022-07-18T07:48:40;5.65;;;2.22;;
50519;SDS011;36468;44.098;3.078;2022-07-18T07:51:08;5.30;;;2.00;;
50519;SDS011;36468;44.098;3.078;2022-07-18T07:53:34;3.67;;;1.65;;
50519;SDS011;36468;44.098;3.078;2022-07-18T07:56:00;2.35;;;1.40;;
50519;SDS011;36468;44.098;3.078;2022-07-18T07:58:27;3.67;;;1.75;;
50519;SDS011;36468;44.098;3.078;2022-07-18T08:00:53;7.47;;;1.65;;
50519;SDS011;36468;44.098;3.078;2022-07-18T08:03:19;4.72;;;1.70;;
50519;SDS011;36468;44.098;3.078;2022-07-18T08:05:48;6.10;;;1.50;;
50519;SDS011;36468;44.098;3.078;2022-07-18T08:08:14;2.25;;;1.40;;
50519;SDS011;36468;44.098;3.078;2022-07-18T08:10:40;4.95;;;1.33;;
50519;SDS011;36468;44.098;3.078;2022-07-18T08:13:07;3.33;;;1.50;;
50519;SDS011;36468;44.098;3.078;2022-07-18T08:15:33;4.60;;;1.50;;
50519;SDS011;36468;44.098;3.078;2022-07-18T08:17:59;8.80;;;1.77;;
50519;SDS011;36468;44.098;3.078;2022-07-18T08:20:25;7.93;;;1.73;;
50519;SDS011;36468;44.098;3.078;2022-07-18T08:22:55;6.00;;;1.42;;
50519;SDS011;36468;44.098;3.078;2022-07-18T08:25:22;4.53;;;1.67;;
50519;SDS011;36468;44.098;3.078;2022-07-18T08:27:48;6.03;;;1.42;;
50519;SDS011;36468;44.098;3.078;2022-07-18T08:30:14;5.18;;;1.38;;
50519;SDS011;36468;44.098;3.078;2022-07-18T08:32:41;2.92;;;1.30;;
50519;SDS011;36468;44.098;3.078;2022-07-18T08:35:07;7.25;;;1.50;;
50519;SDS011;36468;44.098;3.078;2022-07-18T08:37:33;6.28;;;1.80;;
50519;SDS011;36468;44.098;3.078;2022-07-18T08:39:59;4.63;;;1.60;;
50519;SDS011;36468;44.098;3.078;2022-07-18T08:42:25;6.47;;;1.45;;
50519;SDS011;36468;44.098;3.078;2022-07-18T08:44:55;5.57;;;1.40;;
50519;SDS011;36468;44.098;3.078;2022-07-18T08:47:22;4.22;;;1.60;;
50519;SDS011;36468;44.098;3.078;2022-07-18T08:49:51;4.38;;;1.48;;
50519;SDS011;36468;44.098;3.078;2022-07-18T08:52:18;5.10;;;1.27;;
50519;SDS011;36468;44.098;3.078;2022-07-18T08:54:45;3.75;;;1.25;;
50519;SDS011;36468;44.098;3.078;2022-07-18T08:57:13;8.70;;;1.70;;
50519;SDS011;36468;44.098;3.078;2022-07-18T08:59:39;5.43;;;1.30;;
50519;SDS011;36468;44.098;3.078;2022-07-18T09:02:06;3.83;;;1.48;;
50519;SDS011;36468;44.098;3.078;2022-07-18T09:06:58;7.72;;;1.50;;
50519;SDS011;36468;44.098;3.078;2022-07-18T09:09:24;4.65;;;1.38;;
50519;SDS011;36468;44.098;3.078;2022-07-18T09:11:55;4.57;;;1.13;;
50519;SDS011;36468;44.098;3.078;2022-07-18T09:14:31;8.18;;;1.50;;
50519;SDS011;36468;44.098;3.078;2022-07-18T09:17:01;3.35;;;1.15;;
50519;SDS011;36468;44.098;3.078;2022-07-18T09:19:28;6.07;;;1.40;;
50519;SDS011;36468;44.098;3.078;2022-07-18T09:21:54;7.38;;;1.40;;
50519;SDS011;36468;44.098;3.078;2022-07-18T09:24:20;5.90;;;1.33;;
50519;SDS011;36468;44.098;3.078;2022-07-18T09:26:46;5.65;;;1.52;;
50519;SDS011;36468;44.098;3.078;2022-07-18T09:29:15;9.32;;;1.63;;
50519;SDS011;36468;44.098;3.078;2022-07-18T09:31:48;6.03;;;1.48;;
50519;SDS011;36468;44.098;3.078;2022-07-18T09:34:14;8.57;;;1.27;;
50519;SDS011;36468;44.098;3.078;2022-07-18T09:36:57;3.15;;;0.80;;
50519;SDS011;36468;44.098;3.078;2022-07-18T09:39:23;1.52;;;0.80;;
50519;SDS011;36468;44.098;3.078;2022-07-18T09:41:49;3.47;;;0.65;;
50519;SDS011;36468;44.098;3.078;2022-07-18T09:44:16;6.22;;;0.90;;
50519;SDS011;36468;44.098;3.078;2022-07-18T09:46:58;2.97;;;0.77;;
50519;SDS011;36468;44.098;3.078;2022-07-18T09:49:28;4.65;;;0.80;;
50519;SDS011;36468;44.098;3.078;2022-07-18T09:52:01;5.23;;;0.80;;
50519;SDS011;36468;44.098;3.078;2022-07-18T09:54:41;3.75;;;0.80;;
50519;SDS011;36468;44.098;3.078;2022-07-18T09:57:07;5.43;;;0.85;;
50519;SDS011;36468;44.098;3.078;2022-07-18T09:59:34;10.90;;;0.90;;
50519;SDS011;36468;44.098;3.078;2022-07-18T10:02:00;6.53;;;1.00;;
50519;SDS011;36468;44.098;3.078;2022-07-18T10:04:26;1.48;;;0.75;;
50519;SDS011;36468;44.098;3.078;2022-07-18T10:06:52;3.10;;;0.90;;
50519;SDS011;36468;44.098;3.078;2022-07-18T10:09:19;2.35;;;0.88;;
50519;SDS011;36468;44.098;3.078;2022-07-18T10:11:45;2.47;;;0.80;;
50519;SDS011;36468;44.098;3.078;2022-07-18T10:14:11;2.47;;;0.88;;
50519;SDS011;36468;44.098;3.078;2022-07-18T10:16:38;2.70;;;0.80;;
50519;SDS011;36468;44.098;3.078;2022-07-18T10:19:04;2.08;;;0.90;;
50519;SDS011;36468;44.098;3.078;2022-07-18T10:21:30;5.18;;;1.02;;
50519;SDS011;36468;44.098;3.078;2022-07-18T10:23:56;1.85;;;0.80;;
50519;SDS011;36468;44.098;3.078;2022-07-18T10:26:26;2.63;;;0.88;;
50519;SDS011;36468;44.098;3.078;2022-07-18T10:31:39;3.65;;;0.80;;
50519;SDS011;36468;44.098;3.078;2022-07-18T10:37:23;8.98;;;1.05;;
50519;SDS011;36468;44.098;3.078;2022-07-18T10:57:37;1.65;;;0.80;;
50519;SDS011;36468;44.098;3.078;2022-07-18T11:00:08;4.07;;;0.93;;
50519;SDS011;36468;44.098;3.078;2022-07-18T11:05:01;3.38;;;1.00;;
50519;SDS011;36468;44.098;3.078;2022-07-18T11:07:28;3.88;;;1.10;;
50519;SDS011;36468;44.098;3.078;2022-07-18T11:09:54;2.53;;;0.80;;
50519;SDS011;36468;44.098;3.078;2022-07-18T11:25:39;2.95;;;0.70;;
50519;SDS011;36468;44.098;3.078;2022-07-18T11:28:09;4.18;;;1.10;;
50519;SDS011;36468;44.098;3.078;2022-07-18T11:30:35;3.70;;;1.10;;
50519;SDS011;36468;44.098;3.078;2022-07-18T11:33:02;8.13;;;1.17;;
50519;SDS011;36468;44.098;3.078;2022-07-18T11:35:28;3.22;;;1.02;;
50519;SDS011;36468;44.098;3.078;2022-07-18T11:37:54;2.28;;;0.90;;
50519;SDS011;36468;44.098;3.078;2022-07-18T11:40:20;3.05;;;1.00;;
50519;SDS011;36468;44.098;3.078;2022-07-18T11:42:47;2.63;;;1.08;;
50519;SDS011;36468;44.098;3.078;2022-07-18T11:45:14;7.03;;;1.08;;
50519;SDS011;36468;44.098;3.078;2022-07-18T11:50:13;4.57;;;0.98;;
50519;SDS011;36468;44.098;3.078;2022-07-18T11:52:40;2.20;;;1.00;;
50519;SDS011;36468;44.098;3.078;2022-07-18T11:55:06;1.17;;;0.82;;
50519;SDS011;36468;44.098;3.078;2022-07-18T11:57:32;2.83;;;0.88;;
50519;SDS011;36468;44.098;3.078;2022-07-18T12:00:12;4.60;;;1.20;;
50519;SDS011;36468;44.098;3.078;2022-07-18T12:05:30;8.02;;;1.30;;
50519;SDS011;36468;44.098;3.078;2022-07-18T12:07:56;4.38;;;0.93;;
50519;SDS011;36468;44.098;3.078;2022-07-18T12:10:22;3.10;;;0.90;;
50519;SDS011;36468;44.098;3.078;2022-07-18T12:12:49;3.13;;;1.10;;
50519;SDS011;36468;44.098;3.078;2022-07-18T12:15:15;2.47;;;0.93;;
50519;SDS011;36468;44.098;3.078;2022-07-18T12:17:47;3.70;;;1.17;;
50519;SDS011;36468;44.098;3.078;2022-07-18T12:20:17;4.53;;;1.27;;
50519;SDS011;36468;44.098;3.078;2022-07-18T12:25:36;5.35;;;1.42;;
50519;SDS011;36468;44.098;3.078;2022-07-18T12:28:18;4.63;;;1.50;;
50519;SDS011;36468;44.098;3.078;2022-07-18T12:30:46;5.60;;;1.65;;
50519;SDS011;36468;44.098;3.078;2022-07-18T12:33:13;9.43;;;1.38;;
50519;SDS011;36468;44.098;3.078;2022-07-18T12:35:39;4.25;;;1.45;;
50519;SDS011;36468;44.098;3.078;2022-07-18T12:38:15;5.45;;;1.60;;
50519;SDS011;36468;44.098;3.078;2022-07-18T12:40:44;3.55;;;1.65;;
50519;SDS011;36468;44.098;3.078;2022-07-18T12:43:21;6.32;;;1.60;;
50519;SDS011;36468;44.098;3.078;2022-07-18T12:45:48;7.55;;;1.83;;
50519;SDS011;36468;44.098;3.078;2022-07-18T12:48:15;5.95;;;1.42;;
50519;SDS011;36468;44.098;3.078;2022-07-18T12:50:41;3.97;;;1.60;;
50519;SDS011;36468;44.098;3.078;2022-07-18T12:53:08;4.95;;;1.50;;
50519;SDS011;36468;44.098;3.078;2022-07-18T12:55:34;3.75;;;1.60;;
50519;SDS011;36468;44.098;3.078;2022-07-18T12:58:01;10.02;;;2.00;;
50519;SDS011;36468;44.098;3.078;2022-07-18T13:00:28;2.22;;;1.40;;
50519;SDS011;36468;44.098;3.078;2022-07-18T13:02:54;3.53;;;1.52;;
50519;SDS011;36468;44.098;3.078;2022-07-18T13:05:23;5.95;;;1.95;;
50519;SDS011;36468;44.098;3.078;2022-07-18T13:07:49;7.50;;;1.83;;
50519;SDS011;36468;44.098;3.078;2022-07-18T13:10:15;1.80;;;1.40;;
50519;SDS011;36468;44.098;3.078;2022-07-18T13:12:41;8.55;;;1.42;;
50519;SDS011;36468;44.098;3.078;2022-07-18T13:15:07;2.88;;;1.80;;
50519;SDS011;36468;44.098;3.078;2022-07-18T13:17:34;4.70;;;2.03;;
50519;SDS011;36468;44.098;3.078;2022-07-18T13:20:00;8.98;;;1.80;;
50519;SDS011;36468;44.098;3.078;2022-07-18T13:22:26;6.20;;;1.70;;
50519;SDS011;36468;44.098;3.078;2022-07-18T13:24:52;5.57;;;1.77;;
50519;SDS011;36468;44.098;3.078;2022-07-18T13:27:18;5.32;;;1.90;;
50519;SDS011;36468;44.098;3.078;2022-07-18T13:29:47;5.90;;;1.77;;
50519;SDS011;36468;44.098;3.078;2022-07-18T13:32:13;2.90;;;1.65;;
50519;SDS011;36468;44.098;3.078;2022-07-18T13:34:39;6.50;;;1.30;;
50519;SDS011;36468;44.098;3.078;2022-07-18T13:37:05;4.25;;;1.70;;
50519;SDS011;36468;44.098;3.078;2022-07-18T13:39:31;9.57;;;2.00;;
50519;SDS011;36468;44.098;3.078;2022-07-18T13:41:58;4.35;;;1.63;;
50519;SDS011;36468;44.098;3.078;2022-07-18T13:44:27;13.70;;;1.60;;
50519;SDS011;36468;44.098;3.078;2022-07-18T13:46:53;3.83;;;1.40;;
50519;SDS011;36468;44.098;3.078;2022-07-18T13:49:19;4.10;;;1.58;;
50519;SDS011;36468;44.098;3.078;2022-07-18T13:51:45;2.53;;;1.63;;
50519;SDS011;36468;44.098;3.078;2022-07-18T13:54:11;2.92;;;1.52;;
50519;SDS011;36468;44.098;3.078;2022-07-18T13:56:41;3.72;;;1.33;;
50519;SDS011;36468;44.098;3.078;2022-07-18T13:59:07;5.05;;;1.52;;
50519;SDS011;36468;44.098;3.078;2022-07-18T14:01:33;4.60;;;1.60;;
50519;SDS011;36468;44.098;3.078;2022-07-18T14:03:59;2.20;;;1.60;;
50519;SDS011;36468;44.098;3.078;2022-07-18T14:06:25;3.70;;;1.80;;
50519;SDS011;36468;44.098;3.078;2022-07-18T14:08:52;3.65;;;1.50;;
50519;SDS011;36468;44.098;3.078;2022-07-18T14:11:18;8.13;;;1.48;;
50519;SDS011;36468;44.098;3.078;2022-07-18T14:13:44;2.92;;;1.67;;
50519;SDS011;36468;44.098;3.078;2022-07-18T14:16:10;2.22;;;1.73;;
50519;SDS011;36468;44.098;3.078;2022-07-18T14:18:36;4.53;;;1.60;;
50519;SDS011;36468;44.098;3.078;2022-07-18T14:21:02;5.13;;;1.50;;
50519;SDS011;36468;44.098;3.078;2022-07-18T14:23:28;5.72;;;1.70;;
50519;SDS011;36468;44.098;3.078;2022-07-18T14:25:54;5.38;;;1.70;;
50519;SDS011;36468;44.098;3.078;2022-07-18T14:28:20;8.85;;;2.20;;
50519;SDS011;36468;44.098;3.078;2022-07-18T14:30:46;5.40;;;1.95;;
50519;SDS011;36468;44.098;3.078;2022-07-18T14:33:12;4.55;;;1.92;;
50519;SDS011;36468;44.098;3.078;2022-07-18T14:35:38;4.70;;;1.70;;
50519;SDS011;36468;44.098;3.078;2022-07-18T14:38:04;4.90;;;1.70;;
50519;SDS011;36468;44.098;3.078;2022-07-18T14:40:30;3.28;;;1.55;;
50519;SDS011;36468;44.098;3.078;2022-07-18T14:42:56;3.58;;;1.70;;
50519;SDS011;36468;44.098;3.078;2022-07-18T14:45:23;5.60;;;1.60;;
50519;SDS011;36468;44.098;3.078;2022-07-18T14:47:49;3.78;;;1.67;;
50519;SDS011;36468;44.098;3.078;2022-07-18T14:50:15;4.57;;;1.50;;
50519;SDS011;36468;44.098;3.078;2022-07-18T14:52:41;4.72;;;1.58;;
50519;SDS011;36468;44.098;3.078;2022-07-18T14:55:08;5.97;;;1.70;;
50519;SDS011;36468;44.098;3.078;2022-07-18T14:57:34;3.00;;;1.63;;
50519;SDS011;36468;44.098;3.078;2022-07-18T15:00:00;7.45;;;1.65;;
50519;SDS011;36468;44.098;3.078;2022-07-18T15:02:27;5.00;;;1.58;;
50519;SDS011;36468;44.098;3.078;2022-07-18T15:04:53;7.28;;;2.20;;
50519;SDS011;36468;44.098;3.078;2022-07-18T15:07:19;3.67;;;1.52;;
50519;SDS011;36468;44.098;3.078;2022-07-18T15:09:45;3.33;;;1.70;;
50519;SDS011;36468;44.098;3.078;2022-07-18T15:12:11;5.25;;;1.80;;
50519;SDS011;36468;44.098;3.078;2022-07-18T15:14:37;3.47;;;1.70;;
50519;SDS011;36468;44.098;3.078;2022-07-18T15:17:03;5.05;;;1.70;;
50519;SDS011;36468;44.098;3.078;2022-07-18T15:19:29;2.40;;;1.75;;
50519;SDS011;36468;44.098;3.078;2022-07-18T15:21:55;6.38;;;1.73;;
50519;SDS011;36468;44.098;3.078;2022-07-18T15:24:21;1.80;;;1.60;;
50519;SDS011;36468;44.098;3.078;2022-07-18T15:26:47;4.80;;;1.90;;
50519;SDS011;36468;44.098;3.078;2022-07-18T15:29:13;2.80;;;1.90;;
50519;SDS011;36468;44.098;3.078;2022-07-18T15:31:40;4.25;;;1.90;;
50519;SDS011;36468;44.098;3.078;2022-07-18T15:34:06;3.72;;;1.70;;
50519;SDS011;36468;44.098;3.078;2022-07-18T15:36:32;4.13;;;1.70;;